createdAt,value
2019-06-26T00:02:08.447Z,28.25
2019-06-26T00:04:35.902Z,28.28
2019-06-26T00:07:03.381Z,28.08
2019-06-26T00:09:30.834Z,28.26
2019-06-26T00:11:58.301Z,28.20
2019-06-26T00:14:25.783Z,28.09
2019-06-26T00:16:53.216Z,28.09
2019-06-26T00:19:20.647Z,27.94
2019-06-26T00:21:48.286Z,27.83
2019-06-26T00:24:15.847Z,27.76
2019-06-26T00:26:43.276Z,27.78
2019-06-26T00:29:10.729Z,27.77
2019-06-26T00:31:38.156Z,28.03
2019-06-26T00:34:05.597Z,27.74
2019-06-26T00:36:33.042Z,27.66
2019-06-26T00:39:00.517Z,27.62
2019-06-26T00:41:27.962Z,27.87
2019-06-26T00:43:55.447Z,27.70
2019-06-26T00:46:22.900Z,27.65
2019-06-26T00:48:50.365Z,27.62
2019-06-26T00:51:17.784Z,27.59
2019-06-26T00:53:45.251Z,27.73
2019-06-26T00:56:12.721Z,27.70
2019-06-26T00:58:40.143Z,27.70
2019-06-26T01:01:07.591Z,27.82
2019-06-26T01:03:35.016Z,27.91
2019-06-26T01:06:02.486Z,27.85
2019-06-26T01:08:29.931Z,28.09
2019-06-26T01:10:58.061Z,27.71
2019-06-26T01:13:25.514Z,27.69
2019-06-26T01:15:52.983Z,27.60
2019-06-26T01:18:20.466Z,27.58
2019-06-26T01:20:47.950Z,27.52
2019-06-26T01:23:15.403Z,27.64
2019-06-26T01:25:42.871Z,27.78
2019-06-26T01:28:10.291Z,27.84
2019-06-26T01:30:37.758Z,27.70
2019-06-26T01:33:05.210Z,27.73
2019-06-26T01:35:32.667Z,27.70
2019-06-26T01:38:00.106Z,27.79
2019-06-26T01:40:27.575Z,27.72
2019-06-26T01:42:55.007Z,27.62
2019-06-26T01:45:22.449Z,27.75
2019-06-26T01:47:49.878Z,27.82
2019-06-26T01:50:17.343Z,27.96
2019-06-26T01:52:44.828Z,27.53
2019-06-26T01:55:12.294Z,27.48
2019-06-26T01:57:39.762Z,27.57
2019-06-26T02:00:07.971Z,27.54
2019-06-26T02:02:36.280Z,27.31
2019-06-26T02:05:03.793Z,27.37
2019-06-26T02:07:31.227Z,27.37
2019-06-26T02:09:59.457Z,27.49
2019-06-26T02:12:26.889Z,27.35
2019-06-26T02:14:54.387Z,27.27
2019-06-26T02:17:21.827Z,27.22
2019-06-26T02:19:49.347Z,27.19
2019-06-26T02:22:16.738Z,27.09
2019-06-26T02:24:45.735Z,27.04
2019-06-26T02:27:13.338Z,26.89
2019-06-26T02:29:40.869Z,26.99
2019-06-26T02:32:08.331Z,26.98
2019-06-26T02:34:35.767Z,27.00
2019-06-26T02:37:03.267Z,26.77
2019-06-26T02:39:30.819Z,26.95
2019-06-26T02:41:58.408Z,26.74
2019-06-26T02:44:25.970Z,26.73
2019-06-26T02:46:54.555Z,26.68
2019-06-26T02:49:22.070Z,26.50
2019-06-26T02:51:49.637Z,26.40
2019-06-26T02:54:17.279Z,26.30
2019-06-26T02:56:45.170Z,26.05
2019-06-26T02:59:13.183Z,26.32
2019-06-26T03:01:41.727Z,26.27
2019-06-26T03:04:09.324Z,26.23
2019-06-26T03:06:37.126Z,26.09
2019-06-26T03:09:14.183Z,25.92
2019-06-26T03:11:42.410Z,25.85
2019-06-26T03:16:43.048Z,25.52
2019-06-26T03:19:10.974Z,25.49
2019-06-26T03:21:41.209Z,25.56
2019-06-26T03:24:09.268Z,25.61
2019-06-26T03:26:37.046Z,25.63
2019-06-26T03:29:05.538Z,25.74
2019-06-26T03:31:33.705Z,25.78
2019-06-26T03:34:02.393Z,25.85
2019-06-26T03:36:30.741Z,25.88
2019-06-26T03:38:59.338Z,25.80
2019-06-26T03:41:27.849Z,25.69
2019-06-26T03:43:56.015Z,25.42
2019-06-26T03:46:23.780Z,25.43
2019-06-26T03:48:51.424Z,25.49
2019-06-26T03:51:19.319Z,25.33
2019-06-26T03:53:47.812Z,25.47
2019-06-26T03:56:15.484Z,25.45
2019-06-26T03:58:43.662Z,25.32
2019-06-26T04:01:11.724Z,25.73
2019-06-26T04:03:39.855Z,25.70
2019-06-26T04:06:07.631Z,25.41
2019-06-26T04:08:35.794Z,25.40
2019-06-26T04:11:04.554Z,25.39
2019-06-26T04:13:32.791Z,25.34
2019-06-26T04:16:01.080Z,25.28
2019-06-26T04:18:29.280Z,25.22
2019-06-26T04:20:57.795Z,25.27
2019-06-26T04:23:25.644Z,25.17
2019-06-26T04:25:53.662Z,25.37
2019-06-26T04:28:23.283Z,25.28
2019-06-26T04:30:51.181Z,25.27
2019-06-26T04:33:19.330Z,25.25
2019-06-26T04:35:47.546Z,25.28
2019-06-26T04:38:15.615Z,25.36
2019-06-26T04:40:44.677Z,25.38
2019-06-26T04:43:13.623Z,25.24
2019-06-26T04:45:57.290Z,25.14
2019-06-26T04:48:12.586Z,25.26
2019-06-26T04:50:41.577Z,25.09
2019-06-26T04:53:09.602Z,25.16
2019-06-26T04:55:37.891Z,25.13
2019-06-26T04:58:08.378Z,25.15
2019-06-26T05:00:36.348Z,25.21
2019-06-26T05:03:04.379Z,25.25
2019-06-26T05:05:39.714Z,25.27
2019-06-26T05:08:01.630Z,25.33
2019-06-26T05:10:29.466Z,25.02
2019-06-26T05:12:57.715Z,25.16
2019-06-26T05:15:25.483Z,25.01
2019-06-26T05:17:53.620Z,25.07
2019-06-26T05:20:21.496Z,25.21
2019-06-26T05:22:49.392Z,25.22
2019-06-26T05:25:17.372Z,24.77
2019-06-26T05:27:45.196Z,24.97
2019-06-26T05:30:13.243Z,24.82
2019-06-26T05:32:40.936Z,24.96
2019-06-26T05:35:08.998Z,24.90
2019-06-26T05:37:38.745Z,25.02
2019-06-26T05:40:09.451Z,25.08
2019-06-26T05:42:37.713Z,25.14
2019-06-26T05:45:05.428Z,25.04
2019-06-26T05:47:33.563Z,25.12
2019-06-26T05:50:01.477Z,25.05
2019-06-26T05:52:29.430Z,24.93
2019-06-26T05:54:57.486Z,24.96
2019-06-26T05:57:25.541Z,25.11
2019-06-26T05:59:53.442Z,25.05
2019-06-26T06:02:21.352Z,25.32
2019-06-26T06:04:51.162Z,25.27
2019-06-26T06:07:19.414Z,25.47
2019-06-26T06:09:48.392Z,25.40
2019-06-26T06:12:17.714Z,25.48
2019-06-26T06:14:45.496Z,25.46
2019-06-26T06:17:13.278Z,25.53
2019-06-26T06:19:41.302Z,25.59
2019-06-26T06:22:09.237Z,25.57
2019-06-26T06:24:37.272Z,25.50
2019-06-26T06:27:05.359Z,25.59
2019-06-26T06:29:35.351Z,25.95
2019-06-26T06:32:03.333Z,26.01
2019-06-26T06:34:31.219Z,25.85
2019-06-26T06:36:59.024Z,25.74
2019-06-26T06:39:31.345Z,25.73
2019-06-26T06:41:59.421Z,26.17
2019-06-26T06:44:27.537Z,26.15
2019-06-26T06:47:03.872Z,25.98
2019-06-26T06:49:23.461Z,26.02
2019-06-26T06:51:52.343Z,26.25
2019-06-26T06:54:20.217Z,26.22
2019-06-26T06:56:48.348Z,26.04
2019-06-26T06:59:16.216Z,26.17
2019-06-26T07:01:44.009Z,26.43
2019-06-26T07:04:12.444Z,26.20
2019-06-26T07:06:40.753Z,26.49
2019-06-26T07:09:08.760Z,26.51
2019-06-26T07:11:37.206Z,26.58
2019-06-26T07:14:04.928Z,26.34
2019-06-26T07:16:33.007Z,26.63
2019-06-26T07:19:00.746Z,26.82
2019-06-26T07:21:28.841Z,26.60
2019-06-26T07:23:57.094Z,26.56
2019-06-26T07:26:25.065Z,26.65
2019-06-26T07:28:52.763Z,26.53
2019-06-26T07:31:20.856Z,26.68
2019-06-26T07:33:48.772Z,26.48
2019-06-26T07:36:16.952Z,26.51
2019-06-26T07:38:46.080Z,26.74
2019-06-26T07:41:15.563Z,26.84
2019-06-26T07:43:43.356Z,26.93
2019-06-26T07:46:12.618Z,27.00
2019-06-26T07:48:40.434Z,26.92
2019-06-26T07:51:11.645Z,26.97
2019-06-26T07:53:39.150Z,27.00
2019-06-26T07:56:07.386Z,27.32
2019-06-26T07:58:35.285Z,27.28
2019-06-26T08:01:03.230Z,27.35
2019-06-26T08:03:31.071Z,27.29
2019-06-26T08:05:59.276Z,27.16
2019-06-26T08:08:27.155Z,27.16
2019-06-26T08:10:55.016Z,27.28
2019-06-26T08:13:22.669Z,27.41
2019-06-26T08:15:51.261Z,27.08
2019-06-26T08:18:19.621Z,27.25
2019-06-26T08:21:00.713Z,27.22
2019-06-26T08:23:16.142Z,27.21
2019-06-26T08:25:44.140Z,27.38
2019-06-26T08:28:12.221Z,27.38
2019-06-26T08:30:40.221Z,27.45
2019-06-26T08:33:08.203Z,27.48
2019-06-26T08:35:36.005Z,27.40
2019-06-26T08:38:10.192Z,27.36
2019-06-26T08:40:32.244Z,27.63
2019-06-26T08:43:00.192Z,27.63
2019-06-26T08:45:28.283Z,27.78
2019-06-26T08:47:57.008Z,27.74
2019-06-26T08:50:24.922Z,27.89
2019-06-26T08:52:52.708Z,28.01
2019-06-26T08:55:20.177Z,28.14
2019-06-26T08:57:48.060Z,28.18
2019-06-26T09:00:15.646Z,28.16
2019-06-26T09:02:43.244Z,28.33
2019-06-26T09:05:10.976Z,28.20
2019-06-26T09:07:38.610Z,28.22
2019-06-26T09:10:07.211Z,28.42
2019-06-26T09:12:35.061Z,28.34
2019-06-26T09:15:02.934Z,28.17
2019-06-26T09:17:30.900Z,28.17
2019-06-26T09:19:59.234Z,28.32
2019-06-26T09:22:28.163Z,28.23
2019-06-26T09:24:55.946Z,28.36
2019-06-26T09:27:23.539Z,28.49
2019-06-26T09:29:51.457Z,28.47
2019-06-26T09:32:19.037Z,28.56
2019-06-26T09:34:46.870Z,28.47
2019-06-26T09:37:14.488Z,28.54
2019-06-26T09:39:42.430Z,28.54
2019-06-26T09:42:10.047Z,28.72
2019-06-26T09:44:38.653Z,28.61
2019-06-26T09:47:06.546Z,28.59
2019-06-26T09:49:34.041Z,28.67
2019-06-26T09:52:02.091Z,28.86
2019-06-26T09:54:29.907Z,28.93
2019-06-26T09:56:57.545Z,28.82
2019-06-26T09:59:25.014Z,28.82
2019-06-26T10:01:54.182Z,29.05
2019-06-26T10:04:21.887Z,28.92
2019-06-26T10:06:49.924Z,29.12
2019-06-26T10:09:17.750Z,29.05
2019-06-26T10:11:45.934Z,29.09
2019-06-26T10:14:14.847Z,29.26
2019-06-26T10:16:42.615Z,29.28
2019-06-26T10:19:11.042Z,29.22
2019-06-26T10:21:38.826Z,29.45
2019-06-26T10:24:07.305Z,29.18
2019-06-26T10:26:35.202Z,29.23
2019-06-26T10:29:02.861Z,29.06
2019-06-26T10:31:30.601Z,29.05
2019-06-26T10:33:58.803Z,29.26
2019-06-26T10:36:26.465Z,29.47
2019-06-26T10:38:54.474Z,29.33
2019-06-26T10:41:22.921Z,29.32
2019-06-26T10:43:51.268Z,29.24
2019-06-26T10:46:19.098Z,29.42
2019-06-26T10:48:49.844Z,29.51
2019-06-26T10:51:17.440Z,29.30
2019-06-26T10:53:44.890Z,29.53
2019-06-26T10:56:12.694Z,29.31
2019-06-26T10:58:40.919Z,29.60
2019-06-26T11:01:08.567Z,29.60
2019-06-26T11:03:36.566Z,29.60
2019-06-26T11:06:04.622Z,29.30
2019-06-26T11:08:33.886Z,29.74
2019-06-26T11:11:02.071Z,29.71
2019-06-26T11:13:30.726Z,29.57
2019-06-26T11:15:58.609Z,29.74
2019-06-26T11:18:26.458Z,30.06
2019-06-26T11:20:56.275Z,30.06
2019-06-26T11:23:25.212Z,29.63
2019-06-26T11:25:52.769Z,29.95
2019-06-26T11:28:21.266Z,30.19
2019-06-26T11:30:48.985Z,30.05
2019-06-26T11:33:16.666Z,29.83
2019-06-26T11:35:47.161Z,29.79
2019-06-26T11:38:14.654Z,30.04
2019-06-26T11:40:42.935Z,29.95
2019-06-26T11:43:11.726Z,30.07
2019-06-26T11:45:39.791Z,30.19
2019-06-26T11:48:08.143Z,30.06
2019-06-26T11:50:36.726Z,30.30
2019-06-26T11:53:04.828Z,30.33
2019-06-26T11:55:36.727Z,30.41
2019-06-26T11:58:04.932Z,30.09
2019-06-26T12:00:32.727Z,29.93
2019-06-26T12:03:01.155Z,30.10
2019-06-26T12:05:28.911Z,30.02
2019-06-26T12:07:57.033Z,30.37
2019-06-26T12:10:24.942Z,30.44
2019-06-26T12:12:52.993Z,30.31
2019-06-26T12:15:20.756Z,30.18
2019-06-26T12:17:48.634Z,30.47
2019-06-26T12:20:19.076Z,30.46
2019-06-26T12:22:44.089Z,30.56
2019-06-26T12:25:12.361Z,30.52
2019-06-26T12:27:40.272Z,30.52
2019-06-26T12:30:08.299Z,30.42
2019-06-26T12:32:42.167Z,30.13
2019-06-26T12:35:05.169Z,30.45
2019-06-26T12:37:37.678Z,30.52
2019-06-26T12:40:01.101Z,30.35
2019-06-26T12:42:28.613Z,30.64
2019-06-26T12:44:56.515Z,30.78
2019-06-26T12:47:24.180Z,30.78
2019-06-26T12:49:52.343Z,30.44
2019-06-26T12:52:20.806Z,30.29
2019-06-26T12:54:48.353Z,30.64
2019-06-26T12:57:16.032Z,30.22
2019-06-26T12:59:56.930Z,30.17
2019-06-26T13:02:11.445Z,30.30
2019-06-26T13:04:39.459Z,30.34
2019-06-26T13:07:07.079Z,30.51
2019-06-26T13:09:34.553Z,30.57
2019-06-26T13:12:02.262Z,30.60
2019-06-26T13:14:29.993Z,30.74
2019-06-26T13:16:57.521Z,30.52
2019-06-26T13:19:25.027Z,30.28
2019-06-26T13:21:52.608Z,30.81
2019-06-26T13:24:20.432Z,30.52
2019-06-26T13:26:48.024Z,30.25
2019-06-26T13:29:17.606Z,30.87
2019-06-26T13:31:45.594Z,31.00
2019-06-26T13:34:13.623Z,30.86
2019-06-26T13:36:42.117Z,30.80
2019-06-26T13:39:10.090Z,31.05
2019-06-26T13:41:38.776Z,31.21
2019-06-26T13:44:06.297Z,31.20
2019-06-26T13:46:34.033Z,31.17
2019-06-26T13:49:01.709Z,31.31
2019-06-26T13:51:29.435Z,31.31
2019-06-26T13:53:57.125Z,31.21
2019-06-26T13:56:26.213Z,31.31
2019-06-26T13:58:53.727Z,31.23
2019-06-26T14:01:23.105Z,31.30
2019-06-26T14:03:50.417Z,31.29
2019-06-26T14:06:18.165Z,31.31
2019-06-26T14:08:45.905Z,30.62
2019-06-26T14:11:14.494Z,31.16
2019-06-26T14:13:42.565Z,31.15
2019-06-26T14:16:10.862Z,31.38
2019-06-26T14:18:38.332Z,30.63
2019-06-26T14:21:06.341Z,31.03
2019-06-26T14:23:37.650Z,31.16
2019-06-26T14:26:02.518Z,31.47
2019-06-26T14:28:31.512Z,31.40
2019-06-26T14:30:59.212Z,31.65
2019-06-26T14:33:27.429Z,31.69
2019-06-26T14:35:55.309Z,31.70
2019-06-26T14:38:22.914Z,31.55
2019-06-26T14:40:50.507Z,31.78
2019-06-26T14:43:18.312Z,31.62
2019-06-26T14:45:45.997Z,31.66
2019-06-26T14:48:14.033Z,31.40
2019-06-26T14:50:42.028Z,31.60
2019-06-26T14:53:09.761Z,31.76
2019-06-26T14:55:37.347Z,31.75
2019-06-26T14:58:05.195Z,31.76
2019-06-26T15:00:33.153Z,31.96
2019-06-26T15:03:01.271Z,32.02
2019-06-26T15:05:28.901Z,31.70
2019-06-26T15:07:56.743Z,31.75
2019-06-26T15:10:24.307Z,32.14
2019-06-26T15:12:52.767Z,31.99
2019-06-26T15:15:20.370Z,32.33
2019-06-26T15:17:48.122Z,32.11
2019-06-26T15:20:16.875Z,32.30
2019-06-26T15:22:44.488Z,31.98
2019-06-26T15:25:12.008Z,31.71
2019-06-26T15:27:40.498Z,32.12
2019-06-26T15:30:08.177Z,32.27
2019-06-26T15:32:35.784Z,32.27
2019-06-26T15:35:04.448Z,32.34
2019-06-26T15:37:32.275Z,32.33
2019-06-26T15:39:59.992Z,32.32
2019-06-26T15:42:27.711Z,32.27
2019-06-26T15:44:55.955Z,32.12
2019-06-26T15:47:23.743Z,32.23
2019-06-26T15:49:51.469Z,32.07
2019-06-26T15:52:19.741Z,32.32
2019-06-26T15:54:47.310Z,32.08
2019-06-26T15:57:17.487Z,32.33
2019-06-26T15:59:45.286Z,32.41
2019-06-26T16:02:12.901Z,32.59
2019-06-26T16:04:41.497Z,32.43
2019-06-26T16:07:09.465Z,32.64
2019-06-26T16:09:37.300Z,32.47
2019-06-26T16:12:05.086Z,32.67
2019-06-26T16:14:32.859Z,32.65
2019-06-26T16:17:15.998Z,32.47
2019-06-26T16:19:44.127Z,32.76
2019-06-26T16:22:11.618Z,32.49
2019-06-26T16:24:39.390Z,31.95
2019-06-26T16:27:07.919Z,32.41
2019-06-26T16:29:36.441Z,32.58
2019-06-26T16:32:04.186Z,32.67
2019-06-26T16:34:32.940Z,32.69
2019-06-26T16:37:00.672Z,31.84
2019-06-26T16:39:28.842Z,31.82
2019-06-26T16:41:57.092Z,32.31
2019-06-26T16:44:24.790Z,32.25
2019-06-26T16:46:53.168Z,32.55
2019-06-26T16:49:23.540Z,32.31
2019-06-26T16:51:51.686Z,32.37
2019-06-26T16:54:21.123Z,32.38
2019-06-26T16:56:49.649Z,31.72
2019-06-26T16:59:17.711Z,32.11
2019-06-26T17:01:46.684Z,32.03
2019-06-26T17:04:14.373Z,31.82
2019-06-26T17:06:42.255Z,31.97
2019-06-26T17:09:09.813Z,31.79
2019-06-26T17:11:37.847Z,31.99
2019-06-26T17:14:08.143Z,31.93
2019-06-26T17:16:37.291Z,31.02
2019-06-26T17:19:05.258Z,31.62
2019-06-26T17:21:33.254Z,31.30
2019-06-26T17:24:00.820Z,31.16
2019-06-26T17:26:28.661Z,31.43
2019-06-26T17:28:57.189Z,31.20
2019-06-26T17:31:27.209Z,30.43
2019-06-26T17:34:00.040Z,30.28
2019-06-26T17:36:35.103Z,30.61
2019-06-26T17:39:07.585Z,30.43
2019-06-26T17:41:43.961Z,30.61
2019-06-26T17:44:23.310Z,30.37
2019-06-26T17:46:58.748Z,30.40
2019-06-26T17:49:32.643Z,30.68
2019-06-26T17:52:03.171Z,30.58
2019-06-26T17:54:37.127Z,30.69
2019-06-26T17:57:07.175Z,30.68
2019-06-26T17:59:39.329Z,30.42
2019-06-26T18:02:14.372Z,30.51
2019-06-26T18:04:46.507Z,30.53
2019-06-26T18:07:20.466Z,30.44
2019-06-26T18:09:53.816Z,30.17
2019-06-26T18:12:27.849Z,30.18
2019-06-26T18:14:57.822Z,30.09
2019-06-26T18:17:29.390Z,30.18
2019-06-26T18:20:00.671Z,29.84
2019-06-26T18:22:31.741Z,29.64
2019-06-26T18:25:05.834Z,29.68
2019-06-26T18:27:36.414Z,29.83
2019-06-26T18:30:08.274Z,29.77
2019-06-26T18:32:36.754Z,29.52
2019-06-26T18:35:05.537Z,29.46
2019-06-26T18:37:33.140Z,29.33
2019-06-26T18:40:00.955Z,29.08
2019-06-26T18:42:28.895Z,29.08
2019-06-26T18:44:57.131Z,29.01
2019-06-26T18:47:25.205Z,28.89
2019-06-26T18:49:52.866Z,28.69
2019-06-26T18:52:24.958Z,28.60
2019-06-26T18:54:53.422Z,28.48
2019-06-26T18:57:22.895Z,28.25
2019-06-26T18:59:55.049Z,28.37
2019-06-26T19:02:22.890Z,28.45
2019-06-26T19:04:54.039Z,28.20
2019-06-26T19:07:18.918Z,28.25
2019-06-26T19:09:46.756Z,28.50
2019-06-26T19:12:14.675Z,28.53
2019-06-26T19:14:45.939Z,28.32
2019-06-26T19:17:11.329Z,28.25
2019-06-26T19:19:39.194Z,28.35
2019-06-26T19:22:07.095Z,28.04
2019-06-26T19:24:39.312Z,28.14
2019-06-26T19:27:07.843Z,28.12
2019-06-26T19:29:35.051Z,28.12
2019-06-26T19:32:03.084Z,27.97
2019-06-26T19:34:31.662Z,27.93
2019-06-26T19:36:59.918Z,28.02
2019-06-26T19:39:27.722Z,27.82
2019-06-26T19:41:55.783Z,27.72
2019-06-26T19:44:23.557Z,27.78
2019-06-26T19:46:51.674Z,27.77
2019-06-26T19:49:20.116Z,27.61
2019-06-26T19:51:47.639Z,27.61
2019-06-26T19:54:27.081Z,27.46
2019-06-26T19:56:49.180Z,27.30
2019-06-26T19:59:16.952Z,27.30
2019-06-26T20:01:44.683Z,27.24
2019-06-26T20:04:12.358Z,27.21
2019-06-26T20:06:39.824Z,27.10
2019-06-26T20:09:07.276Z,27.06
2019-06-26T20:11:34.854Z,27.06
2019-06-26T20:14:02.357Z,26.97
2019-06-26T20:16:29.823Z,26.81
2019-06-26T20:18:57.295Z,26.84
2019-06-26T20:21:25.254Z,26.66
2019-06-26T20:23:53.817Z,26.67
2019-06-26T20:26:21.407Z,26.71
2019-06-26T20:28:50.483Z,26.64
2019-06-26T20:31:18.067Z,26.60
2019-06-26T20:33:52.314Z,26.51
2019-06-26T20:36:20.419Z,26.39
2019-06-26T20:38:47.941Z,26.29
2019-06-26T20:41:15.789Z,26.35
2019-06-26T20:43:43.367Z,26.25
2019-06-26T20:46:10.807Z,26.08
2019-06-26T20:48:38.419Z,26.06
2019-06-26T20:51:05.946Z,26.15
2019-06-26T20:53:33.392Z,25.99
2019-06-26T20:56:00.888Z,26.00
2019-06-26T20:58:28.341Z,25.91
2019-06-26T21:00:55.876Z,25.88
2019-06-26T21:03:23.343Z,25.80
2019-06-26T21:05:50.768Z,25.76
2019-06-26T21:08:18.348Z,25.73
2019-06-26T21:10:49.634Z,25.68
2019-06-26T21:13:16.984Z,25.60
2019-06-26T21:15:44.437Z,25.60
2019-06-26T21:18:12.219Z,25.64
2019-06-26T21:20:39.728Z,25.53
2019-06-26T21:23:17.789Z,25.47
2019-06-26T21:25:34.706Z,25.42
2019-06-26T21:28:03.192Z,25.30
2019-06-26T21:30:30.800Z,25.35
2019-06-26T21:32:58.265Z,25.24
2019-06-26T21:35:25.696Z,25.27
2019-06-26T21:37:53.671Z,25.01
2019-06-26T21:40:21.095Z,25.11
2019-06-26T21:42:48.543Z,25.11
2019-06-26T21:45:19.155Z,24.97
2019-06-26T21:47:43.551Z,25.01
2019-06-26T21:50:11.669Z,25.10
2019-06-26T21:52:39.158Z,25.05
2019-06-26T21:55:06.587Z,24.97
2019-06-26T21:57:34.054Z,24.85
2019-06-26T22:00:01.532Z,24.93
2019-06-26T22:02:28.989Z,24.93
2019-06-26T22:04:56.483Z,24.85
2019-06-26T22:07:24.320Z,24.63
2019-06-26T22:09:51.918Z,24.73
2019-06-26T22:12:19.374Z,24.75
2019-06-26T22:14:47.080Z,24.63
2019-06-26T22:17:15.302Z,24.55
2019-06-26T22:19:42.791Z,24.56
2019-06-26T22:22:10.234Z,24.50
2019-06-26T22:24:37.660Z,24.52
2019-06-26T22:27:05.296Z,24.52
2019-06-26T22:29:32.806Z,24.53
2019-06-26T22:32:00.247Z,24.40
2019-06-26T22:34:27.700Z,24.29
2019-06-26T22:36:55.271Z,24.31
2019-06-26T22:39:22.774Z,24.10
2019-06-26T22:41:50.762Z,24.14
2019-06-26T22:44:18.223Z,24.04
2019-06-26T22:46:45.663Z,23.83
2019-06-26T22:49:13.413Z,23.90
2019-06-26T22:51:43.109Z,23.97
2019-06-26T22:54:10.659Z,23.94
2019-06-26T22:56:39.618Z,23.94
2019-06-26T22:59:07.089Z,23.74
2019-06-26T23:01:34.595Z,23.84
2019-06-26T23:04:02.068Z,23.81
2019-06-26T23:06:30.660Z,23.74
2019-06-26T23:08:58.178Z,23.70
2019-06-26T23:11:25.643Z,23.69
2019-06-26T23:13:53.937Z,23.67
2019-06-26T23:16:21.487Z,23.54
2019-06-26T23:18:49.037Z,23.40
2019-06-26T23:21:16.555Z,23.44
2019-06-26T23:23:44.039Z,23.29
2019-06-26T23:26:23.579Z,23.30
2019-06-26T23:28:39.047Z,23.27
2019-06-26T23:31:06.520Z,23.06
2019-06-26T23:33:34.004Z,23.08
2019-06-26T23:36:02.443Z,23.05
2019-06-26T23:38:30.036Z,22.96
2019-06-26T23:40:57.540Z,22.90
2019-06-26T23:43:24.961Z,22.93
2019-06-26T23:45:52.438Z,22.89
2019-06-26T23:48:19.846Z,22.83
2019-06-26T23:50:47.542Z,22.82
2019-06-26T23:53:15.306Z,22.76
2019-06-26T23:55:42.756Z,22.67
2019-06-26T23:58:11.197Z,22.64
